TimeEST,TemperatureF,Dew PointF,Humidity,Sea Level PressureIn,VisibilityMPH,Wind Direction,Wind SpeedMPH,Gust SpeedMPH,PrecipitationIn,Events,Conditions,WindDirDegrees,DateUTC
12:15 AM,23.0,21.2,93,30.35,4.0,NW,5.8,-,N/A,Snow,Light Snow,320,2014-02-06 05:15:00
12:35 AM,23.0,21.2,93,30.35,5.0,NNW,5.8,-,N/A,Snow,Light Snow,340,2014-02-06 05:35:00
12:55 AM,23.0,21.2,93,30.35,5.0,NW,3.5,-,N/A,Snow,Light Snow,320,2014-02-06 05:55:00
1:15 AM,23.0,21.2,93,30.35,5.0,NW,3.5,-,N/A,Snow,Light Snow,310,2014-02-06 06:15:00
1:35 AM,23.0,21.2,93,30.35,4.0,NW,3.5,-,N/A,Snow,Light Snow,320,2014-02-06 06:35:00
1:55 AM,23.0,21.2,93,30.36,3.0,Calm,Calm,-,N/A,Snow,Light Snow,0,2014-02-06 06:55:00
2:15 AM,23.0,21.2,93,30.36,3.0,Calm,Calm,-,N/A,Snow,Light Snow,0,2014-02-06 07:15:00
2:35 AM,23.0,23.0,100,30.36,3.0,Calm,Calm,-,N/A,Snow,Light Snow,0,2014-02-06 07:35:00
2:55 AM,23.0,23.0,100,30.35,2.5,Calm,Calm,-,N/A,Snow,Light Snow,0,2014-02-06 07:55:00
3:15 AM,23.0,23.0,100,30.35,3.0,Calm,Calm,-,N/A,Snow,Light Snow,0,2014-02-06 08:15:00
3:35 AM,23.0,23.0,100,30.35,3.0,Calm,Calm,-,N/A,Snow,Light Snow,0,2014-02-06 08:35:00
3:55 AM,23.0,23.0,100,30.36,3.0,NNW,3.5,-,N/A,Snow,Light Snow,330,2014-02-06 08:55:00
4:15 AM,23.0,23.0,100,30.36,3.0,North,3.5,-,N/A,Snow,Light Snow,350,2014-02-06 09:15:00
4:35 AM,23.0,23.0,100,30.36,3.0,North,3.5,-,N/A,Snow,Light Snow,350,2014-02-06 09:35:00
4:55 AM,23.0,23.0,100,30.36,4.0,North,3.5,-,N/A,Snow,Light Snow,360,2014-02-06 09:55:00
5:15 AM,23.0,23.0,100,30.36,5.0,North,3.5,-,N/A,Snow,Light Snow,360,2014-02-06 10:15:00
5:35 AM,23.0,23.0,100,30.37,7.0,North,3.5,-,N/A,Snow,Light Snow,360,2014-02-06 10:35:00
5:55 AM,23.0,21.2,93,30.38,7.0,North,3.5,-,N/A,Snow,Light Snow,360,2014-02-06 10:55:00
6:15 AM,23.0,21.2,93,30.39,7.0,North,3.5,-,N/A,Snow,Light Snow,350,2014-02-06 11:15:00
6:35 AM,23.0,21.2,93,30.39,10.0,North,3.5,-,N/A,Snow,Light Snow,360,2014-02-06 11:35:00
6:55 AM,23.0,21.2,93,30.40,7.0,Calm,Calm,-,N/A,Snow,Light Snow,0,2014-02-06 11:55:00
7:15 AM,23.0,21.2,93,30.40,5.0,Calm,Calm,-,N/A,Snow,Light Snow,0,2014-02-06 12:15:00
7:35 AM,23.0,21.2,93,30.40,7.0,Calm,Calm,-,N/A,,Overcast,0,2014-02-06 12:35:00
7:55 AM,23.0,21.2,93,30.40,7.0,North,3.5,-,N/A,Snow,Light Snow,350,2014-02-06 12:55:00
8:15 AM,23.0,21.2,93,30.39,4.0,Calm,Calm,-,N/A,Snow,Light Snow,0,2014-02-06 13:15:00
8:35 AM,23.0,21.2,93,30.40,2.5,NNW,3.5,-,N/A,Snow,Light Snow,340,2014-02-06 13:35:00
8:55 AM,23.0,21.2,93,30.42,2.5,NNW,4.6,-,N/A,Snow,Light Snow,330,2014-02-06 13:55:00
9:15 AM,23.0,21.2,93,30.43,2.5,North,3.5,-,N/A,Snow,Light Snow,350,2014-02-06 14:15:00
9:35 AM,23.0,21.2,93,30.43,2.5,NNW,5.8,-,N/A,Snow,Light Snow,330,2014-02-06 14:35:00
9:55 AM,23.0,21.2,93,30.45,5.0,NNW,4.6,-,N/A,Snow,Light Snow,330,2014-02-06 14:55:00
10:15 AM,23.0,19.4,86,30.45,7.0,Calm,Calm,-,N/A,Snow,Light Snow,0,2014-02-06 15:15:00
10:35 AM,23.0,19.4,86,30.45,10.0,Calm,Calm,-,N/A,,Mostly Cloudy,0,2014-02-06 15:35:00
10:55 AM,23.0,19.4,86,30.46,10.0,North,3.5,-,N/A,,Overcast,350,2014-02-06 15:55:00
11:15 AM,24.8,19.4,80,30.45,10.0,Calm,Calm,-,N/A,,Overcast,0,2014-02-06 16:15:00
11:35 AM,24.8,19.4,80,30.45,10.0,West,3.5,-,0.01,,Overcast,280,2014-02-06 16:35:00
11:55 AM,26.6,19.4,74,30.45,10.0,Calm,Calm,-,0.03,,Overcast,0,2014-02-06 16:55:00
12:15 PM,26.6,19.4,74,30.43,10.0,Calm,Calm,-,0.02,,Overcast,0,2014-02-06 17:15:00
12:35 PM,26.6,17.6,69,30.42,10.0,NNW,4.6,-,0.03,,Overcast,340,2014-02-06 17:35:00
12:55 PM,26.6,17.6,69,30.40,10.0,North,4.6,-,0.04,,Scattered Clouds,350,2014-02-06 17:55:00
1:15 PM,28.4,19.4,69,30.40,10.0,North,4.6,-,0.01,,Mostly Cloudy,350,2014-02-06 18:15:00
1:35 PM,26.6,17.6,69,30.39,10.0,West,4.6,-,0.02,,Scattered Clouds,270,2014-02-06 18:35:00
1:55 PM,26.6,17.6,69,30.38,10.0,NNW,4.6,-,0.03,,Mostly Cloudy,330,2014-02-06 18:55:00
2:15 PM,26.6,17.6,69,30.39,10.0,NW,6.9,-,0.01,,Mostly Cloudy,320,2014-02-06 19:15:00
2:35 PM,26.6,17.6,69,30.38,10.0,WNW,6.9,-,0.02,,Overcast,290,2014-02-06 19:35:00
2:55 PM,26.6,17.6,69,30.38,10.0,NNW,6.9,-,0.03,Snow,Light Snow,340,2014-02-06 19:55:00
3:15 PM,26.6,19.4,74,30.38,7.0,WNW,6.9,-,N/A,Snow,Light Snow,290,2014-02-06 20:15:00
3:35 PM,26.6,19.4,74,30.38,7.0,NW,3.5,-,0.01,Snow,Light Snow,320,2014-02-06 20:35:00
3:55 PM,26.6,19.4,74,30.37,7.0,WNW,3.5,-,0.01,Snow,Light Snow,300,2014-02-06 20:55:00
4:15 PM,26.6,19.4,74,30.38,10.0,NW,4.6,-,N/A,,Mostly Cloudy,310,2014-02-06 21:15:00
4:35 PM,26.6,19.4,74,30.38,10.0,NW,5.8,-,N/A,,Overcast,310,2014-02-06 21:35:00
4:55 PM,24.8,19.4,80,30.37,10.0,NW,6.9,-,N/A,,Overcast,310,2014-02-06 21:55:00
5:15 PM,24.8,19.4,80,30.37,10.0,NNW,3.5,-,N/A,,Overcast,330,2014-02-06 22:15:00
5:35 PM,24.8,19.4,80,30.37,10.0,NW,4.6,-,N/A,,Overcast,310,2014-02-06 22:35:00
5:55 PM,24.8,19.4,80,30.38,10.0,NW,4.6,-,N/A,,Overcast,310,2014-02-06 22:55:00
6:15 PM,23.0,19.4,86,30.37,10.0,WNW,4.6,-,N/A,,Overcast,300,2014-02-06 23:15:00
6:35 PM,23.0,19.4,86,30.38,10.0,West,4.6,-,N/A,,Overcast,280,2014-02-06 23:35:00
6:55 PM,23.0,19.4,86,30.40,10.0,West,4.6,-,N/A,,Overcast,280,2014-02-06 23:55:00
7:15 PM,23.0,19.4,86,30.40,10.0,West,4.6,-,N/A,,Overcast,270,2014-02-07 00:15:00
7:35 PM,23.0,19.4,86,30.39,10.0,West,3.5,-,N/A,,Overcast,280,2014-02-07 00:35:00
7:55 PM,23.0,19.4,86,30.40,10.0,WNW,4.6,-,N/A,,Overcast,290,2014-02-07 00:55:00
8:15 PM,23.0,19.4,86,30.40,10.0,WNW,3.5,-,N/A,,Overcast,300,2014-02-07 01:15:00
8:35 PM,23.0,19.4,86,30.39,10.0,WNW,4.6,-,N/A,,Overcast,300,2014-02-07 01:35:00
8:55 PM,23.0,19.4,86,30.40,10.0,NW,4.6,-,N/A,,Overcast,320,2014-02-07 01:55:00
9:15 PM,23.0,19.4,86,30.40,10.0,NNW,5.8,-,N/A,,Overcast,340,2014-02-07 02:15:00
9:35 PM,23.0,19.4,86,30.40,10.0,NNW,3.5,-,N/A,,Overcast,330,2014-02-07 02:35:00
9:55 PM,23.0,19.4,86,30.40,10.0,NW,4.6,-,N/A,,Overcast,320,2014-02-07 02:55:00
10:15 PM,23.0,19.4,86,30.39,10.0,NW,3.5,-,N/A,,Overcast,320,2014-02-07 03:15:00
10:35 PM,21.2,19.4,93,30.38,10.0,NW,4.6,-,N/A,,Overcast,320,2014-02-07 03:35:00
10:55 PM,21.2,17.6,86,30.38,10.0,NW,5.8,-,N/A,,Overcast,320,2014-02-07 03:55:00
11:15 PM,21.2,17.6,86,30.38,10.0,NW,4.6,-,N/A,,Overcast,320,2014-02-07 04:15:00
11:35 PM,21.2,17.6,86,30.37,10.0,NW,4.6,-,N/A,,Overcast,310,2014-02-07 04:35:00
11:55 PM,21.2,17.6,86,30.38,10.0,NNW,5.8,-,N/A,Snow,Light Snow,330,2014-02-07 04:55:00